<?xml version="1.0" encoding="UTF-8" standalone="no" ?>
<gpx xmlns="http://www.topografix.com/GPX/1/1" xmlns:xsi="http://www.w3.org/2001/XMLSchema-instance" xsi:schemaLocation="http://www.topografix.com/GPX/1/1 http://www.topografix.com/GPX/1/1/gpx.xsd" version="1.1" creator="VisuGPX - https://www.visugpx.com">
  <metadata>
    <name>Pierra Menta été 2023 étape 2</name>
  </metadata>
  <trk>
    <name><![CDATA[Projet PM été étape 2-16763148]]></name>
    <trkseg>
      <trkpt lat="45.68504" lon="6.56417">
        <ele>1013</ele>
        <time>2023-06-03T16:10:01Z</time>
      </trkpt>
      <trkpt lat="45.68485" lon="6.56411">
        <ele>1015</ele>
        <time>2023-06-03T16:10:11Z</time>
      </trkpt>
      <trkpt lat="45.68479" lon="6.56406">
        <ele>1015</ele>
        <time>2023-06-03T16:10:14Z</time>
      </trkpt>
      <trkpt lat="45.68474" lon="6.56397">
        <ele>1016</ele>
        <time>2023-06-03T16:10:18Z</time>
      </trkpt>
      <trkpt lat="45.68472" lon="6.56378">
        <ele>1016</ele>
        <time>2023-06-03T16:10:25Z</time>
      </trkpt>
      <trkpt lat="45.68476" lon="6.56366">
        <ele>1017</ele>
        <time>2023-06-03T16:10:30Z</time>
      </trkpt>
      <trkpt lat="45.68476" lon="6.56356">
        <ele>1017</ele>
        <time>2023-06-03T16:10:33Z</time>
      </trkpt>
      <trkpt lat="45.68476" lon="6.56354">
        <ele>1017</ele>
        <time>2023-06-03T16:10:34Z</time>
      </trkpt>
      <trkpt lat="45.68472" lon="6.56335">
        <ele>1017</ele>
        <time>2023-06-03T16:10:41Z</time>
      </trkpt>
      <trkpt lat="45.68466" lon="6.56324">
        <ele>1020</ele>
        <time>2023-06-03T16:10:46Z</time>
      </trkpt>
      <trkpt lat="45.68476" lon="6.56327">
        <ele>1020</ele>
        <time>2023-06-03T16:10:51Z</time>
      </trkpt>
      <trkpt lat="45.68503" lon="6.56314">
        <ele>1026</ele>
        <time>2023-06-03T16:11:05Z</time>
      </trkpt>
      <trkpt lat="45.68522" lon="6.56323">
        <ele>1023</ele>
        <time>2023-06-03T16:11:15Z</time>
      </trkpt>
      <trkpt lat="45.68549" lon="6.56339">
        <ele>1022</ele>
        <time>2023-06-03T16:11:30Z</time>
      </trkpt>
      <trkpt lat="45.68582" lon="6.56328">
        <ele>1026</ele>
        <time>2023-06-03T16:11:47Z</time>
      </trkpt>
      <trkpt lat="45.68592" lon="6.5631">
        <ele>1029</ele>
        <time>2023-06-03T16:11:55Z</time>
      </trkpt>
      <trkpt lat="45.6861" lon="6.563">
        <ele>1028</ele>
        <time>2023-06-03T16:12:04Z</time>
      </trkpt>
      <trkpt lat="45.68624" lon="6.56291">
        <ele>1029</ele>
        <time>2023-06-03T16:12:12Z</time>
      </trkpt>
      <trkpt lat="45.68663" lon="6.56286">
        <ele>1025</ele>
        <time>2023-06-03T16:12:32Z</time>
      </trkpt>
      <trkpt lat="45.68752" lon="6.56286">
        <ele>1019</ele>
        <time>2023-06-03T16:13:16Z</time>
      </trkpt>
      <trkpt lat="45.68796" lon="6.56278">
        <ele>1020</ele>
        <time>2023-06-03T16:13:38Z</time>
      </trkpt>
      <trkpt lat="45.68832" lon="6.56273">
        <ele>1019</ele>
        <time>2023-06-03T16:13:56Z</time>
      </trkpt>
      <trkpt lat="45.68837" lon="6.56267">
        <ele>1020</ele>
        <time>2023-06-03T16:14:00Z</time>
      </trkpt>
      <trkpt lat="45.6884" lon="6.56253">
        <ele>1021</ele>
        <time>2023-06-03T16:14:05Z</time>
      </trkpt>
      <trkpt lat="45.68831" lon="6.56167">
        <ele>1034</ele>
        <time>2023-06-03T16:14:35Z</time>
      </trkpt>
      <trkpt lat="45.68832" lon="6.56151">
        <ele>1035</ele>
        <time>2023-06-03T16:14:41Z</time>
      </trkpt>
      <trkpt lat="45.68834" lon="6.56142">
        <ele>1035</ele>
        <time>2023-06-03T16:14:44Z</time>
      </trkpt>
      <trkpt lat="45.6884" lon="6.56136">
        <ele>1036</ele>
        <time>2023-06-03T16:14:48Z</time>
      </trkpt>
      <trkpt lat="45.68845" lon="6.56134">
        <ele>1036</ele>
        <time>2023-06-03T16:14:50Z</time>
      </trkpt>
      <trkpt lat="45.68859" lon="6.56137">
        <ele>1035</ele>
        <time>2023-06-03T16:14:57Z</time>
      </trkpt>
      <trkpt lat="45.68872" lon="6.56144">
        <ele>1034</ele>
        <time>2023-06-03T16:15:04Z</time>
      </trkpt>
      <trkpt lat="45.68868" lon="6.56115">
        <ele>1038</ele>
        <time>2023-06-03T16:15:15Z</time>
      </trkpt>
      <trkpt lat="45.68858" lon="6.56064">
        <ele>1045</ele>
        <time>2023-06-03T16:15:33Z</time>
      </trkpt>
      <trkpt lat="45.68852" lon="6.56051">
        <ele>1046</ele>
        <time>2023-06-03T16:15:39Z</time>
      </trkpt>
      <trkpt lat="45.68836" lon="6.56036">
        <ele>1046</ele>
        <time>2023-06-03T16:15:48Z</time>
      </trkpt>
      <trkpt lat="45.68821" lon="6.56025">
        <ele>1049</ele>
        <time>2023-06-03T16:15:57Z</time>
      </trkpt>
      <trkpt lat="45.68812" lon="6.56021">
        <ele>1052</ele>
        <time>2023-06-03T16:16:01Z</time>
      </trkpt>
      <trkpt lat="45.68803" lon="6.56026">
        <ele>1053</ele>
        <time>2023-06-03T16:16:06Z</time>
      </trkpt>
      <trkpt lat="45.68798" lon="6.56035">
        <ele>1052</ele>
        <time>2023-06-03T16:16:10Z</time>
      </trkpt>
      <trkpt lat="45.68797" lon="6.5606">
        <ele>1049</ele>
        <time>2023-06-03T16:16:19Z</time>
      </trkpt>
      <trkpt lat="45.68798" lon="6.56075">
        <ele>1047</ele>
        <time>2023-06-03T16:16:24Z</time>
      </trkpt>
      <trkpt lat="45.68797" lon="6.55976">
        <ele>1062</ele>
        <time>2023-06-03T16:16:59Z</time>
      </trkpt>
      <trkpt lat="45.68763" lon="6.55886">
        <ele>1084</ele>
        <time>2023-06-03T16:17:35Z</time>
      </trkpt>
      <trkpt lat="45.68749" lon="6.55864">
        <ele>1088</ele>
        <time>2023-06-03T16:17:45Z</time>
      </trkpt>
      <trkpt lat="45.687" lon="6.55858">
        <ele>1109</ele>
        <time>2023-06-03T16:18:10Z</time>
      </trkpt>
      <trkpt lat="45.68638" lon="6.55879">
        <ele>1128</ele>
        <time>2023-06-03T16:18:42Z</time>
      </trkpt>
      <trkpt lat="45.68579" lon="6.55957">
        <ele>1124</ele>
        <time>2023-06-03T16:19:22Z</time>
      </trkpt>
      <trkpt lat="45.68495" lon="6.55985">
        <ele>1146</ele>
        <time>2023-06-03T16:20:05Z</time>
      </trkpt>
      <trkpt lat="45.68438" lon="6.56025">
        <ele>1142</ele>
        <time>2023-06-03T16:20:37Z</time>
      </trkpt>
      <trkpt lat="45.68465" lon="6.55957">
        <ele>1159</ele>
        <time>2023-06-03T16:21:04Z</time>
      </trkpt>
      <trkpt lat="45.68467" lon="6.55929">
        <ele>1165</ele>
        <time>2023-06-03T16:21:14Z</time>
      </trkpt>
      <trkpt lat="45.68498" lon="6.55874">
        <ele>1171</ele>
        <time>2023-06-03T16:21:39Z</time>
      </trkpt>
      <trkpt lat="45.68505" lon="6.55868">
        <ele>1172</ele>
        <time>2023-06-03T16:21:43Z</time>
      </trkpt>
      <trkpt lat="45.68506" lon="6.55852">
        <ele>1179</ele>
        <time>2023-06-03T16:21:48Z</time>
      </trkpt>
      <trkpt lat="45.68493" lon="6.55851">
        <ele>1182</ele>
        <time>2023-06-03T16:21:55Z</time>
      </trkpt>
      <trkpt lat="45.68442" lon="6.55881">
        <ele>1190</ele>
        <time>2023-06-03T16:22:22Z</time>
      </trkpt>
      <trkpt lat="45.68406" lon="6.55915">
        <ele>1189</ele>
        <time>2023-06-03T16:22:44Z</time>
      </trkpt>
      <trkpt lat="45.68399" lon="6.55841">
        <ele>1207</ele>
        <time>2023-06-03T16:23:10Z</time>
      </trkpt>
      <trkpt lat="45.68369" lon="6.55809">
        <ele>1216</ele>
        <time>2023-06-03T16:23:29Z</time>
      </trkpt>
      <trkpt lat="45.68342" lon="6.55749">
        <ele>1238</ele>
        <time>2023-06-03T16:23:54Z</time>
      </trkpt>
      <trkpt lat="45.68412" lon="6.5577">
        <ele>1239</ele>
        <time>2023-06-03T16:24:30Z</time>
      </trkpt>
      <trkpt lat="45.68267" lon="6.55536">
        <ele>1305</ele>
        <time>2023-06-03T16:26:19Z</time>
      </trkpt>
      <trkpt lat="45.68334" lon="6.55566">
        <ele>1315</ele>
        <time>2023-06-03T16:26:54Z</time>
      </trkpt>
      <trkpt lat="45.6825" lon="6.55418">
        <ele>1349</ele>
        <time>2023-06-03T16:28:01Z</time>
      </trkpt>
      <trkpt lat="45.68109" lon="6.55274">
        <ele>1365</ele>
        <time>2023-06-03T16:29:27Z</time>
      </trkpt>
      <trkpt lat="45.6795" lon="6.55064">
        <ele>1372</ele>
        <time>2023-06-03T16:31:16Z</time>
      </trkpt>
      <trkpt lat="45.67836" lon="6.5491">
        <ele>1369</ele>
        <time>2023-06-03T16:32:34Z</time>
      </trkpt>
      <trkpt lat="45.67723" lon="6.54777">
        <ele>1331</ele>
        <time>2023-06-03T16:33:47Z</time>
      </trkpt>
      <trkpt lat="45.67621" lon="6.54676">
        <ele>1282</ele>
        <time>2023-06-03T16:34:49Z</time>
      </trkpt>
      <trkpt lat="45.67565" lon="6.54532">
        <ele>1260</ele>
        <time>2023-06-03T16:35:47Z</time>
      </trkpt>
      <trkpt lat="45.67555" lon="6.54408">
        <ele>1263</ele>
        <time>2023-06-03T16:36:31Z</time>
      </trkpt>
      <trkpt lat="45.67516" lon="6.54408">
        <ele>1249</ele>
        <time>2023-06-03T16:36:50Z</time>
      </trkpt>
      <trkpt lat="45.67465" lon="6.5436">
        <ele>1239</ele>
        <time>2023-06-03T16:37:21Z</time>
      </trkpt>
      <trkpt lat="45.67452" lon="6.54329">
        <ele>1238</ele>
        <time>2023-06-03T16:37:33Z</time>
      </trkpt>
      <trkpt lat="45.6742" lon="6.54342">
        <ele>1230</ele>
        <time>2023-06-03T16:37:50Z</time>
      </trkpt>
      <trkpt lat="45.67392" lon="6.54347">
        <ele>1218</ele>
        <time>2023-06-03T16:38:04Z</time>
      </trkpt>
      <trkpt lat="45.67376" lon="6.54333">
        <ele>1210</ele>
        <time>2023-06-03T16:38:13Z</time>
      </trkpt>
      <trkpt lat="45.67347" lon="6.54385">
        <ele>1196</ele>
        <time>2023-06-03T16:38:37Z</time>
      </trkpt>
      <trkpt lat="45.67329" lon="6.54429">
        <ele>1187</ele>
        <time>2023-06-03T16:38:55Z</time>
      </trkpt>
      <trkpt lat="45.67325" lon="6.54497">
        <ele>1178</ele>
        <time>2023-06-03T16:39:18Z</time>
      </trkpt>
      <trkpt lat="45.67298" lon="6.54402">
        <ele>1182</ele>
        <time>2023-06-03T16:39:54Z</time>
      </trkpt>
      <trkpt lat="45.67266" lon="6.54395">
        <ele>1175</ele>
        <time>2023-06-03T16:40:10Z</time>
      </trkpt>
      <trkpt lat="45.6724" lon="6.54409">
        <ele>1171</ele>
        <time>2023-06-03T16:40:24Z</time>
      </trkpt>
      <trkpt lat="45.67213" lon="6.54453">
        <ele>1168</ele>
        <time>2023-06-03T16:40:45Z</time>
      </trkpt>
      <trkpt lat="45.672" lon="6.54484">
        <ele>1165</ele>
        <time>2023-06-03T16:40:57Z</time>
      </trkpt>
      <trkpt lat="45.67192" lon="6.54547">
        <ele>1163</ele>
        <time>2023-06-03T16:41:20Z</time>
      </trkpt>
      <trkpt lat="45.67157" lon="6.54609">
        <ele>1167</ele>
        <time>2023-06-03T16:41:48Z</time>
      </trkpt>
      <trkpt lat="45.67129" lon="6.54633">
        <ele>1172</ele>
        <time>2023-06-03T16:42:04Z</time>
      </trkpt>
      <trkpt lat="45.67096" lon="6.54665">
        <ele>1179</ele>
        <time>2023-06-03T16:42:24Z</time>
      </trkpt>
      <trkpt lat="45.67084" lon="6.54682">
        <ele>1181</ele>
        <time>2023-06-03T16:42:32Z</time>
      </trkpt>
      <trkpt lat="45.67095" lon="6.54696">
        <ele>1180</ele>
        <time>2023-06-03T16:42:40Z</time>
      </trkpt>
      <trkpt lat="45.6709" lon="6.54769">
        <ele>1186</ele>
        <time>2023-06-03T16:43:06Z</time>
      </trkpt>
      <trkpt lat="45.67083" lon="6.54791">
        <ele>1193</ele>
        <time>2023-06-03T16:43:14Z</time>
      </trkpt>
      <trkpt lat="45.67072" lon="6.54808">
        <ele>1202</ele>
        <time>2023-06-03T16:43:22Z</time>
      </trkpt>
      <trkpt lat="45.67054" lon="6.54816">
        <ele>1211</ele>
        <time>2023-06-03T16:43:31Z</time>
      </trkpt>
      <trkpt lat="45.67072" lon="6.54886">
        <ele>1229</ele>
        <time>2023-06-03T16:43:58Z</time>
      </trkpt>
      <trkpt lat="45.67093" lon="6.54917">
        <ele>1230</ele>
        <time>2023-06-03T16:44:13Z</time>
      </trkpt>
      <trkpt lat="45.67118" lon="6.54979">
        <ele>1242</ele>
        <time>2023-06-03T16:44:38Z</time>
      </trkpt>
      <trkpt lat="45.67135" lon="6.54993">
        <ele>1239</ele>
        <time>2023-06-03T16:44:48Z</time>
      </trkpt>
      <trkpt lat="45.67141" lon="6.55046">
        <ele>1258</ele>
        <time>2023-06-03T16:45:06Z</time>
      </trkpt>
      <trkpt lat="45.6712" lon="6.55033">
        <ele>1263</ele>
        <time>2023-06-03T16:45:18Z</time>
      </trkpt>
      <trkpt lat="45.67006" lon="6.54917">
        <ele>1271</ele>
        <time>2023-06-03T16:46:28Z</time>
      </trkpt>
      <trkpt lat="45.66952" lon="6.54903">
        <ele>1275</ele>
        <time>2023-06-03T16:46:55Z</time>
      </trkpt>
      <trkpt lat="45.66827" lon="6.54912">
        <ele>1286</ele>
        <time>2023-06-03T16:47:58Z</time>
      </trkpt>
      <trkpt lat="45.66743" lon="6.5493">
        <ele>1295</ele>
        <time>2023-06-03T16:48:40Z</time>
      </trkpt>
      <trkpt lat="45.66662" lon="6.54931">
        <ele>1294</ele>
        <time>2023-06-03T16:49:21Z</time>
      </trkpt>
      <trkpt lat="45.66617" lon="6.54933">
        <ele>1297</ele>
        <time>2023-06-03T16:49:43Z</time>
      </trkpt>
      <trkpt lat="45.66598" lon="6.54972">
        <ele>1316</ele>
        <time>2023-06-03T16:50:00Z</time>
      </trkpt>
      <trkpt lat="45.66535" lon="6.54965">
        <ele>1310</ele>
        <time>2023-06-03T16:50:32Z</time>
      </trkpt>
      <trkpt lat="45.66504" lon="6.5496">
        <ele>1306</ele>
        <time>2023-06-03T16:50:47Z</time>
      </trkpt>
      <trkpt lat="45.66466" lon="6.54933">
        <ele>1302</ele>
        <time>2023-06-03T16:51:08Z</time>
      </trkpt>
      <trkpt lat="45.66397" lon="6.54944">
        <ele>1308</ele>
        <time>2023-06-03T16:51:43Z</time>
      </trkpt>
      <trkpt lat="45.66414" lon="6.55">
        <ele>1314</ele>
        <time>2023-06-03T16:52:05Z</time>
      </trkpt>
      <trkpt lat="45.66349" lon="6.55068">
        <ele>1338</ele>
        <time>2023-06-03T16:52:45Z</time>
      </trkpt>
      <trkpt lat="45.6631" lon="6.5512">
        <ele>1353</ele>
        <time>2023-06-03T16:53:12Z</time>
      </trkpt>
      <trkpt lat="45.66303" lon="6.55142">
        <ele>1361</ele>
        <time>2023-06-03T16:53:20Z</time>
      </trkpt>
      <trkpt lat="45.66288" lon="6.55175">
        <ele>1374</ele>
        <time>2023-06-03T16:53:34Z</time>
      </trkpt>
      <trkpt lat="45.66269" lon="6.55189">
        <ele>1382</ele>
        <time>2023-06-03T16:53:44Z</time>
      </trkpt>
      <trkpt lat="45.66231" lon="6.55199">
        <ele>1391</ele>
        <time>2023-06-03T16:54:04Z</time>
      </trkpt>
      <trkpt lat="45.66168" lon="6.55206">
        <ele>1400</ele>
        <time>2023-06-03T16:54:35Z</time>
      </trkpt>
      <trkpt lat="45.66126" lon="6.55203">
        <ele>1402</ele>
        <time>2023-06-03T16:54:56Z</time>
      </trkpt>
      <trkpt lat="45.66047" lon="6.5521">
        <ele>1413</ele>
        <time>2023-06-03T16:55:36Z</time>
      </trkpt>
      <trkpt lat="45.65996" lon="6.55208">
        <ele>1421</ele>
        <time>2023-06-03T16:56:02Z</time>
      </trkpt>
      <trkpt lat="45.65969" lon="6.55187">
        <ele>1426</ele>
        <time>2023-06-03T16:56:17Z</time>
      </trkpt>
      <trkpt lat="45.65962" lon="6.55189">
        <ele>1429</ele>
        <time>2023-06-03T16:56:21Z</time>
      </trkpt>
      <trkpt lat="45.65946" lon="6.55177">
        <ele>1433</ele>
        <time>2023-06-03T16:56:30Z</time>
      </trkpt>
      <trkpt lat="45.65924" lon="6.55163">
        <ele>1440</ele>
        <time>2023-06-03T16:56:42Z</time>
      </trkpt>
      <trkpt lat="45.6593" lon="6.55133">
        <ele>1436</ele>
        <time>2023-06-03T16:56:53Z</time>
      </trkpt>
      <trkpt lat="45.65932" lon="6.55096">
        <ele>1433</ele>
        <time>2023-06-03T16:57:06Z</time>
      </trkpt>
      <trkpt lat="45.65935" lon="6.55036">
        <ele>1433</ele>
        <time>2023-06-03T16:57:27Z</time>
      </trkpt>
      <trkpt lat="45.65939" lon="6.55001">
        <ele>1431</ele>
        <time>2023-06-03T16:57:39Z</time>
      </trkpt>
      <trkpt lat="45.65861" lon="6.55036">
        <ele>1491</ele>
        <time>2023-06-03T16:58:20Z</time>
      </trkpt>
      <trkpt lat="45.65821" lon="6.55">
        <ele>1528</ele>
        <time>2023-06-03T16:58:44Z</time>
      </trkpt>
      <trkpt lat="45.65762" lon="6.54998">
        <ele>1557</ele>
        <time>2023-06-03T16:59:13Z</time>
      </trkpt>
      <trkpt lat="45.65686" lon="6.5491">
        <ele>1610</ele>
        <time>2023-06-03T17:00:02Z</time>
      </trkpt>
      <trkpt lat="45.65659" lon="6.54804">
        <ele>1651</ele>
        <time>2023-06-03T17:00:41Z</time>
      </trkpt>
      <trkpt lat="45.65579" lon="6.5477">
        <ele>1695</ele>
        <time>2023-06-03T17:01:23Z</time>
      </trkpt>
      <trkpt lat="45.65519" lon="6.54616">
        <ele>1730</ele>
        <time>2023-06-03T17:02:25Z</time>
      </trkpt>
      <trkpt lat="45.65435" lon="6.5459">
        <ele>1758</ele>
        <time>2023-06-03T17:03:08Z</time>
      </trkpt>
      <trkpt lat="45.65345" lon="6.54384">
        <ele>1787</ele>
        <time>2023-06-03T17:04:33Z</time>
      </trkpt>
      <trkpt lat="45.65297" lon="6.54354">
        <ele>1807</ele>
        <time>2023-06-03T17:04:59Z</time>
      </trkpt>
      <trkpt lat="45.65234" lon="6.54298">
        <ele>1825</ele>
        <time>2023-06-03T17:05:36Z</time>
      </trkpt>
      <trkpt lat="45.65176" lon="6.54249">
        <ele>1837</ele>
        <time>2023-06-03T17:06:10Z</time>
      </trkpt>
      <trkpt lat="45.65059" lon="6.54206">
        <ele>1874</ele>
        <time>2023-06-03T17:07:10Z</time>
      </trkpt>
      <trkpt lat="45.6491" lon="6.54126">
        <ele>1913</ele>
        <time>2023-06-03T17:08:30Z</time>
      </trkpt>
      <trkpt lat="45.64835" lon="6.54071">
        <ele>1919</ele>
        <time>2023-06-03T17:09:12Z</time>
      </trkpt>
      <trkpt lat="45.64795" lon="6.53987">
        <ele>1932</ele>
        <time>2023-06-03T17:09:48Z</time>
      </trkpt>
      <trkpt lat="45.64703" lon="6.53946">
        <ele>1952</ele>
        <time>2023-06-03T17:10:36Z</time>
      </trkpt>
      <trkpt lat="45.6463" lon="6.5394">
        <ele>1964</ele>
        <time>2023-06-03T17:11:13Z</time>
      </trkpt>
      <trkpt lat="45.64522" lon="6.5394">
        <ele>1974</ele>
        <time>2023-06-03T17:12:07Z</time>
      </trkpt>
      <trkpt lat="45.64498" lon="6.5398">
        <ele>1973</ele>
        <time>2023-06-03T17:12:25Z</time>
      </trkpt>
      <trkpt lat="45.64507" lon="6.54152">
        <ele>1975</ele>
        <time>2023-06-03T17:13:25Z</time>
      </trkpt>
      <trkpt lat="45.64472" lon="6.54219">
        <ele>2003</ele>
        <time>2023-06-03T17:13:55Z</time>
      </trkpt>
      <trkpt lat="45.64405" lon="6.54255">
        <ele>2009</ele>
        <time>2023-06-03T17:14:30Z</time>
      </trkpt>
      <trkpt lat="45.64387" lon="6.54279">
        <ele>2009</ele>
        <time>2023-06-03T17:14:43Z</time>
      </trkpt>
      <trkpt lat="45.64292" lon="6.5427">
        <ele>2008</ele>
        <time>2023-06-03T17:15:30Z</time>
      </trkpt>
      <trkpt lat="45.6425" lon="6.54234">
        <ele>2012</ele>
        <time>2023-06-03T17:15:55Z</time>
      </trkpt>
      <trkpt lat="45.64202" lon="6.54274">
        <ele>2030</ele>
        <time>2023-06-03T17:16:23Z</time>
      </trkpt>
      <trkpt lat="45.64159" lon="6.54313">
        <ele>2053</ele>
        <time>2023-06-03T17:16:48Z</time>
      </trkpt>
      <trkpt lat="45.64118" lon="6.54347">
        <ele>2072</ele>
        <time>2023-06-03T17:17:12Z</time>
      </trkpt>
      <trkpt lat="45.64073" lon="6.54405">
        <ele>2099</ele>
        <time>2023-06-03T17:17:42Z</time>
      </trkpt>
      <trkpt lat="45.64016" lon="6.54455">
        <ele>2135</ele>
        <time>2023-06-03T17:18:16Z</time>
      </trkpt>
      <trkpt lat="45.63976" lon="6.54498">
        <ele>2162</ele>
        <time>2023-06-03T17:18:41Z</time>
      </trkpt>
      <trkpt lat="45.63956" lon="6.54568">
        <ele>2183</ele>
        <time>2023-06-03T17:19:07Z</time>
      </trkpt>
      <trkpt lat="45.63938" lon="6.54633">
        <ele>2193</ele>
        <time>2023-06-03T17:19:32Z</time>
      </trkpt>
      <trkpt lat="45.63937" lon="6.54716">
        <ele>2203</ele>
        <time>2023-06-03T17:20:01Z</time>
      </trkpt>
      <trkpt lat="45.63961" lon="6.54807">
        <ele>2227</ele>
        <time>2023-06-03T17:20:35Z</time>
      </trkpt>
      <trkpt lat="45.63934" lon="6.54869">
        <ele>2265</ele>
        <time>2023-06-03T17:21:00Z</time>
      </trkpt>
      <trkpt lat="45.6385" lon="6.54899">
        <ele>2280</ele>
        <time>2023-06-03T17:21:44Z</time>
      </trkpt>
      <trkpt lat="45.63805" lon="6.54927">
        <ele>2298</ele>
        <time>2023-06-03T17:22:08Z</time>
      </trkpt>
      <trkpt lat="45.63835" lon="6.5497">
        <ele>2310</ele>
        <time>2023-06-03T17:22:29Z</time>
      </trkpt>
      <trkpt lat="45.63916" lon="6.55056">
        <ele>2324</ele>
        <time>2023-06-03T17:23:20Z</time>
      </trkpt>
      <trkpt lat="45.63839" lon="6.55036">
        <ele>2330</ele>
        <time>2023-06-03T17:23:59Z</time>
      </trkpt>
      <trkpt lat="45.63782" lon="6.55077">
        <ele>2347</ele>
        <time>2023-06-03T17:24:31Z</time>
      </trkpt>
      <trkpt lat="45.63731" lon="6.55101">
        <ele>2359</ele>
        <time>2023-06-03T17:24:58Z</time>
      </trkpt>
      <trkpt lat="45.63653" lon="6.55088">
        <ele>2368</ele>
        <time>2023-06-03T17:25:37Z</time>
      </trkpt>
      <trkpt lat="45.63585" lon="6.54983">
        <ele>2400</ele>
        <time>2023-06-03T17:26:27Z</time>
      </trkpt>
      <trkpt lat="45.63509" lon="6.54843">
        <ele>2437</ele>
        <time>2023-06-03T17:27:29Z</time>
      </trkpt>
      <trkpt lat="45.63448" lon="6.54766">
        <ele>2455</ele>
        <time>2023-06-03T17:28:10Z</time>
      </trkpt>
      <trkpt lat="45.63397" lon="6.54708">
        <ele>2480</ele>
        <time>2023-06-03T17:28:43Z</time>
      </trkpt>
      <trkpt lat="45.63385" lon="6.54547">
        <ele>2504</ele>
        <time>2023-06-03T17:29:39Z</time>
      </trkpt>
      <trkpt lat="45.63359" lon="6.54508">
        <ele>2528</ele>
        <time>2023-06-03T17:29:58Z</time>
      </trkpt>
      <trkpt lat="45.63339" lon="6.54468">
        <ele>2550</ele>
        <time>2023-06-03T17:30:15Z</time>
      </trkpt>
      <trkpt lat="45.63324" lon="6.54401">
        <ele>2564</ele>
        <time>2023-06-03T17:30:40Z</time>
      </trkpt>
      <trkpt lat="45.63291" lon="6.54315">
        <ele>2575</ele>
        <time>2023-06-03T17:31:14Z</time>
      </trkpt>
      <trkpt lat="45.63239" lon="6.5424">
        <ele>2597</ele>
        <time>2023-06-03T17:31:51Z</time>
      </trkpt>
      <trkpt lat="45.63194" lon="6.54227">
        <ele>2603</ele>
        <time>2023-06-03T17:32:14Z</time>
      </trkpt>
      <trkpt lat="45.6306" lon="6.54232">
        <ele>2586</ele>
        <time>2023-06-03T17:33:21Z</time>
      </trkpt>
      <trkpt lat="45.62973" lon="6.54236">
        <ele>2547</ele>
        <time>2023-06-03T17:34:05Z</time>
      </trkpt>
      <trkpt lat="45.62907" lon="6.54356">
        <ele>2530</ele>
        <time>2023-06-03T17:34:58Z</time>
      </trkpt>
      <trkpt lat="45.62838" lon="6.5433">
        <ele>2479</ele>
        <time>2023-06-03T17:35:34Z</time>
      </trkpt>
      <trkpt lat="45.62798" lon="6.54277">
        <ele>2449</ele>
        <time>2023-06-03T17:36:01Z</time>
      </trkpt>
      <trkpt lat="45.62748" lon="6.54165">
        <ele>2397</ele>
        <time>2023-06-03T17:36:48Z</time>
      </trkpt>
      <trkpt lat="45.62706" lon="6.54075">
        <ele>2375</ele>
        <time>2023-06-03T17:37:26Z</time>
      </trkpt>
      <trkpt lat="45.62646" lon="6.54092">
        <ele>2356</ele>
        <time>2023-06-03T17:37:56Z</time>
      </trkpt>
      <trkpt lat="45.62522" lon="6.54004">
        <ele>2276</ele>
        <time>2023-06-03T17:39:05Z</time>
      </trkpt>
      <trkpt lat="45.62496" lon="6.53923">
        <ele>2248</ele>
        <time>2023-06-03T17:39:37Z</time>
      </trkpt>
      <trkpt lat="45.62393" lon="6.53869">
        <ele>2180</ele>
        <time>2023-06-03T17:40:32Z</time>
      </trkpt>
      <trkpt lat="45.62304" lon="6.53766">
        <ele>2118</ele>
        <time>2023-06-03T17:41:29Z</time>
      </trkpt>
      <trkpt lat="45.62239" lon="6.53646">
        <ele>2097</ele>
        <time>2023-06-03T17:42:22Z</time>
      </trkpt>
      <trkpt lat="45.62214" lon="6.53549">
        <ele>2097</ele>
        <time>2023-06-03T17:42:58Z</time>
      </trkpt>
      <trkpt lat="45.62205" lon="6.53431">
        <ele>2093</ele>
        <time>2023-06-03T17:43:40Z</time>
      </trkpt>
      <trkpt lat="45.6233" lon="6.53363">
        <ele>2131</ele>
        <time>2023-06-03T17:44:47Z</time>
      </trkpt>
      <trkpt lat="45.62412" lon="6.53335">
        <ele>2179</ele>
        <time>2023-06-03T17:45:29Z</time>
      </trkpt>
      <trkpt lat="45.62472" lon="6.53328">
        <ele>2213</ele>
        <time>2023-06-03T17:45:59Z</time>
      </trkpt>
      <trkpt lat="45.62531" lon="6.5324">
        <ele>2226</ele>
        <time>2023-06-03T17:46:42Z</time>
      </trkpt>
      <trkpt lat="45.62565" lon="6.53172">
        <ele>2226</ele>
        <time>2023-06-03T17:47:11Z</time>
      </trkpt>
      <trkpt lat="45.62662" lon="6.53088">
        <ele>2269</ele>
        <time>2023-06-03T17:48:08Z</time>
      </trkpt>
      <trkpt lat="45.62809" lon="6.53058">
        <ele>2351</ele>
        <time>2023-06-03T17:49:22Z</time>
      </trkpt>
      <trkpt lat="45.62888" lon="6.53137">
        <ele>2413</ele>
        <time>2023-06-03T17:50:10Z</time>
      </trkpt>
      <trkpt lat="45.62937" lon="6.53244">
        <ele>2481</ele>
        <time>2023-06-03T17:50:55Z</time>
      </trkpt>
      <trkpt lat="45.62972" lon="6.53293">
        <ele>2497</ele>
        <time>2023-06-03T17:51:19Z</time>
      </trkpt>
      <trkpt lat="45.63001" lon="6.53346">
        <ele>2527</ele>
        <time>2023-06-03T17:51:43Z</time>
      </trkpt>
      <trkpt lat="45.63072" lon="6.53493">
        <ele>2575</ele>
        <time>2023-06-03T17:52:46Z</time>
      </trkpt>
      <trkpt lat="45.63104" lon="6.53573">
        <ele>2599</ele>
        <time>2023-06-03T17:53:18Z</time>
      </trkpt>
      <trkpt lat="45.63122" lon="6.53609">
        <ele>2612</ele>
        <time>2023-06-03T17:53:33Z</time>
      </trkpt>
      <trkpt lat="45.63151" lon="6.53653">
        <ele>2640</ele>
        <time>2023-06-03T17:53:54Z</time>
      </trkpt>
      <trkpt lat="45.63159" lon="6.53673">
        <ele>2652</ele>
        <time>2023-06-03T17:54:02Z</time>
      </trkpt>
      <trkpt lat="45.63173" lon="6.53678">
        <ele>2655</ele>
        <time>2023-06-03T17:54:10Z</time>
      </trkpt>
      <trkpt lat="45.632" lon="6.53687">
        <ele>2649</ele>
        <time>2023-06-03T17:54:24Z</time>
      </trkpt>
      <trkpt lat="45.63173" lon="6.53733">
        <ele>2661</ele>
        <time>2023-06-03T17:54:45Z</time>
      </trkpt>
      <trkpt lat="45.63149" lon="6.53762">
        <ele>2654</ele>
        <time>2023-06-03T17:55:00Z</time>
      </trkpt>
      <trkpt lat="45.6314" lon="6.53785">
        <ele>2648</ele>
        <time>2023-06-03T17:55:10Z</time>
      </trkpt>
      <trkpt lat="45.63128" lon="6.53825">
        <ele>2639</ele>
        <time>2023-06-03T17:55:25Z</time>
      </trkpt>
      <trkpt lat="45.63127" lon="6.5385">
        <ele>2637</ele>
        <time>2023-06-03T17:55:34Z</time>
      </trkpt>
      <trkpt lat="45.63111" lon="6.53868">
        <ele>2634</ele>
        <time>2023-06-03T17:55:44Z</time>
      </trkpt>
      <trkpt lat="45.63105" lon="6.53911">
        <ele>2633</ele>
        <time>2023-06-03T17:55:59Z</time>
      </trkpt>
      <trkpt lat="45.63097" lon="6.53948">
        <ele>2634</ele>
        <time>2023-06-03T17:56:13Z</time>
      </trkpt>
      <trkpt lat="45.63095" lon="6.53968">
        <ele>2634</ele>
        <time>2023-06-03T17:56:20Z</time>
      </trkpt>
      <trkpt lat="45.63106" lon="6.54006">
        <ele>2631</ele>
        <time>2023-06-03T17:56:34Z</time>
      </trkpt>
      <trkpt lat="45.6312" lon="6.54032">
        <ele>2626</ele>
        <time>2023-06-03T17:56:46Z</time>
      </trkpt>
      <trkpt lat="45.6311" lon="6.5405">
        <ele>2625</ele>
        <time>2023-06-03T17:56:54Z</time>
      </trkpt>
      <trkpt lat="45.63103" lon="6.54093">
        <ele>2620</ele>
        <time>2023-06-03T17:57:09Z</time>
      </trkpt>
      <trkpt lat="45.6311" lon="6.54129">
        <ele>2614</ele>
        <time>2023-06-03T17:57:22Z</time>
      </trkpt>
      <trkpt lat="45.63115" lon="6.54162">
        <ele>2609</ele>
        <time>2023-06-03T17:57:34Z</time>
      </trkpt>
      <trkpt lat="45.63077" lon="6.54281">
        <ele>2584</ele>
        <time>2023-06-03T17:58:20Z</time>
      </trkpt>
      <trkpt lat="45.63076" lon="6.54388">
        <ele>2560</ele>
        <time>2023-06-03T17:58:57Z</time>
      </trkpt>
      <trkpt lat="45.63073" lon="6.54453">
        <ele>2542</ele>
        <time>2023-06-03T17:59:20Z</time>
      </trkpt>
      <trkpt lat="45.6307" lon="6.54532">
        <ele>2517</ele>
        <time>2023-06-03T17:59:48Z</time>
      </trkpt>
      <trkpt lat="45.6311" lon="6.54613">
        <ele>2495</ele>
        <time>2023-06-03T18:00:22Z</time>
      </trkpt>
      <trkpt lat="45.63179" lon="6.54716">
        <ele>2470</ele>
        <time>2023-06-03T18:01:12Z</time>
      </trkpt>
      <trkpt lat="45.63248" lon="6.54755">
        <ele>2462</ele>
        <time>2023-06-03T18:01:49Z</time>
      </trkpt>
      <trkpt lat="45.6331" lon="6.54802">
        <ele>2453</ele>
        <time>2023-06-03T18:02:25Z</time>
      </trkpt>
      <trkpt lat="45.63362" lon="6.54852">
        <ele>2440</ele>
        <time>2023-06-03T18:02:56Z</time>
      </trkpt>
      <trkpt lat="45.63411" lon="6.5492">
        <ele>2425</ele>
        <time>2023-06-03T18:03:30Z</time>
      </trkpt>
      <trkpt lat="45.63487" lon="6.54987">
        <ele>2413</ele>
        <time>2023-06-03T18:04:15Z</time>
      </trkpt>
      <trkpt lat="45.63543" lon="6.55028">
        <ele>2397</ele>
        <time>2023-06-03T18:04:46Z</time>
      </trkpt>
      <trkpt lat="45.63591" lon="6.55068">
        <ele>2380</ele>
        <time>2023-06-03T18:05:14Z</time>
      </trkpt>
      <trkpt lat="45.63714" lon="6.55133">
        <ele>2365</ele>
        <time>2023-06-03T18:06:20Z</time>
      </trkpt>
      <trkpt lat="45.63742" lon="6.55182">
        <ele>2370</ele>
        <time>2023-06-03T18:06:42Z</time>
      </trkpt>
      <trkpt lat="45.63819" lon="6.55184">
        <ele>2348</ele>
        <time>2023-06-03T18:07:20Z</time>
      </trkpt>
      <trkpt lat="45.63886" lon="6.55156">
        <ele>2324</ele>
        <time>2023-06-03T18:07:55Z</time>
      </trkpt>
      <trkpt lat="45.63912" lon="6.55079">
        <ele>2325</ele>
        <time>2023-06-03T18:08:25Z</time>
      </trkpt>
      <trkpt lat="45.63915" lon="6.5506">
        <ele>2324</ele>
        <time>2023-06-03T18:08:32Z</time>
      </trkpt>
      <trkpt lat="45.63921" lon="6.55036">
        <ele>2324</ele>
        <time>2023-06-03T18:08:41Z</time>
      </trkpt>
      <trkpt lat="45.63925" lon="6.55">
        <ele>2325</ele>
        <time>2023-06-03T18:08:54Z</time>
      </trkpt>
      <trkpt lat="45.63943" lon="6.54981">
        <ele>2318</ele>
        <time>2023-06-03T18:09:05Z</time>
      </trkpt>
      <trkpt lat="45.63973" lon="6.54985">
        <ele>2319</ele>
        <time>2023-06-03T18:09:20Z</time>
      </trkpt>
      <trkpt lat="45.63993" lon="6.54992">
        <ele>2320</ele>
        <time>2023-06-03T18:09:30Z</time>
      </trkpt>
      <trkpt lat="45.64038" lon="6.54979">
        <ele>2319</ele>
        <time>2023-06-03T18:09:53Z</time>
      </trkpt>
      <trkpt lat="45.64069" lon="6.54974">
        <ele>2320</ele>
        <time>2023-06-03T18:10:09Z</time>
      </trkpt>
      <trkpt lat="45.64101" lon="6.54959">
        <ele>2320</ele>
        <time>2023-06-03T18:10:26Z</time>
      </trkpt>
      <trkpt lat="45.64127" lon="6.54953">
        <ele>2319</ele>
        <time>2023-06-03T18:10:39Z</time>
      </trkpt>
      <trkpt lat="45.6415" lon="6.54942">
        <ele>2319</ele>
        <time>2023-06-03T18:10:51Z</time>
      </trkpt>
      <trkpt lat="45.6417" lon="6.54958">
        <ele>2320</ele>
        <time>2023-06-03T18:11:02Z</time>
      </trkpt>
      <trkpt lat="45.64193" lon="6.54965">
        <ele>2316</ele>
        <time>2023-06-03T18:11:14Z</time>
      </trkpt>
      <trkpt lat="45.64213" lon="6.54969">
        <ele>2314</ele>
        <time>2023-06-03T18:11:24Z</time>
      </trkpt>
      <trkpt lat="45.64235" lon="6.54972">
        <ele>2311</ele>
        <time>2023-06-03T18:11:35Z</time>
      </trkpt>
      <trkpt lat="45.6427" lon="6.54973">
        <ele>2305</ele>
        <time>2023-06-03T18:11:53Z</time>
      </trkpt>
      <trkpt lat="45.64299" lon="6.54973">
        <ele>2299</ele>
        <time>2023-06-03T18:12:07Z</time>
      </trkpt>
      <trkpt lat="45.64319" lon="6.54985">
        <ele>2297</ele>
        <time>2023-06-03T18:12:18Z</time>
      </trkpt>
      <trkpt lat="45.64335" lon="6.55013">
        <ele>2295</ele>
        <time>2023-06-03T18:12:31Z</time>
      </trkpt>
      <trkpt lat="45.64357" lon="6.55042">
        <ele>2277</ele>
        <time>2023-06-03T18:12:46Z</time>
      </trkpt>
      <trkpt lat="45.64376" lon="6.55066">
        <ele>2267</ele>
        <time>2023-06-03T18:12:59Z</time>
      </trkpt>
      <trkpt lat="45.64373" lon="6.55094">
        <ele>2265</ele>
        <time>2023-06-03T18:13:08Z</time>
      </trkpt>
      <trkpt lat="45.64405" lon="6.55118">
        <ele>2254</ele>
        <time>2023-06-03T18:13:27Z</time>
      </trkpt>
      <trkpt lat="45.64447" lon="6.55156">
        <ele>2233</ele>
        <time>2023-06-03T18:13:51Z</time>
      </trkpt>
      <trkpt lat="45.64474" lon="6.55181">
        <ele>2223</ele>
        <time>2023-06-03T18:14:08Z</time>
      </trkpt>
      <trkpt lat="45.64494" lon="6.55229">
        <ele>2224</ele>
        <time>2023-06-03T18:14:27Z</time>
      </trkpt>
      <trkpt lat="45.64531" lon="6.55292">
        <ele>2214</ele>
        <time>2023-06-03T18:14:56Z</time>
      </trkpt>
      <trkpt lat="45.64548" lon="6.55322">
        <ele>2211</ele>
        <time>2023-06-03T18:15:09Z</time>
      </trkpt>
      <trkpt lat="45.64574" lon="6.55373">
        <ele>2207</ele>
        <time>2023-06-03T18:15:31Z</time>
      </trkpt>
      <trkpt lat="45.64591" lon="6.55402">
        <ele>2203</ele>
        <time>2023-06-03T18:15:45Z</time>
      </trkpt>
      <trkpt lat="45.64616" lon="6.55433">
        <ele>2190</ele>
        <time>2023-06-03T18:16:01Z</time>
      </trkpt>
      <trkpt lat="45.64628" lon="6.55468">
        <ele>2186</ele>
        <time>2023-06-03T18:16:15Z</time>
      </trkpt>
      <trkpt lat="45.64658" lon="6.55498">
        <ele>2184</ele>
        <time>2023-06-03T18:16:33Z</time>
      </trkpt>
      <trkpt lat="45.64682" lon="6.55514">
        <ele>2177</ele>
        <time>2023-06-03T18:16:46Z</time>
      </trkpt>
      <trkpt lat="45.64718" lon="6.55543">
        <ele>2170</ele>
        <time>2023-06-03T18:17:07Z</time>
      </trkpt>
      <trkpt lat="45.64742" lon="6.5556">
        <ele>2170</ele>
        <time>2023-06-03T18:17:21Z</time>
      </trkpt>
      <trkpt lat="45.64768" lon="6.55585">
        <ele>2171</ele>
        <time>2023-06-03T18:17:36Z</time>
      </trkpt>
      <trkpt lat="45.64794" lon="6.55599">
        <ele>2162</ele>
        <time>2023-06-03T18:17:50Z</time>
      </trkpt>
      <trkpt lat="45.64808" lon="6.55613">
        <ele>2158</ele>
        <time>2023-06-03T18:17:59Z</time>
      </trkpt>
      <trkpt lat="45.64825" lon="6.55691">
        <ele>2154</ele>
        <time>2023-06-03T18:18:27Z</time>
      </trkpt>
      <trkpt lat="45.64829" lon="6.55767">
        <ele>2138</ele>
        <time>2023-06-03T18:18:54Z</time>
      </trkpt>
      <trkpt lat="45.64841" lon="6.55812">
        <ele>2124</ele>
        <time>2023-06-03T18:19:11Z</time>
      </trkpt>
      <trkpt lat="45.64872" lon="6.55854">
        <ele>2107</ele>
        <time>2023-06-03T18:19:32Z</time>
      </trkpt>
      <trkpt lat="45.6491" lon="6.55903">
        <ele>2094</ele>
        <time>2023-06-03T18:19:58Z</time>
      </trkpt>
      <trkpt lat="45.6494" lon="6.55906">
        <ele>2087</ele>
        <time>2023-06-03T18:20:13Z</time>
      </trkpt>
      <trkpt lat="45.6496" lon="6.55918">
        <ele>2081</ele>
        <time>2023-06-03T18:20:24Z</time>
      </trkpt>
      <trkpt lat="45.64991" lon="6.55954">
        <ele>2072</ele>
        <time>2023-06-03T18:20:44Z</time>
      </trkpt>
      <trkpt lat="45.65035" lon="6.55977">
        <ele>2065</ele>
        <time>2023-06-03T18:21:07Z</time>
      </trkpt>
      <trkpt lat="45.65084" lon="6.56007">
        <ele>2060</ele>
        <time>2023-06-03T18:21:34Z</time>
      </trkpt>
      <trkpt lat="45.65105" lon="6.56026">
        <ele>2059</ele>
        <time>2023-06-03T18:21:46Z</time>
      </trkpt>
      <trkpt lat="45.65126" lon="6.56091">
        <ele>2059</ele>
        <time>2023-06-03T18:22:11Z</time>
      </trkpt>
      <trkpt lat="45.6515" lon="6.56126">
        <ele>2055</ele>
        <time>2023-06-03T18:22:28Z</time>
      </trkpt>
      <trkpt lat="45.65185" lon="6.56163">
        <ele>2052</ele>
        <time>2023-06-03T18:22:50Z</time>
      </trkpt>
      <trkpt lat="45.6523" lon="6.56179">
        <ele>2051</ele>
        <time>2023-06-03T18:23:13Z</time>
      </trkpt>
      <trkpt lat="45.65268" lon="6.56214">
        <ele>2045</ele>
        <time>2023-06-03T18:23:36Z</time>
      </trkpt>
      <trkpt lat="45.65302" lon="6.56244">
        <ele>2039</ele>
        <time>2023-06-03T18:23:56Z</time>
      </trkpt>
      <trkpt lat="45.65315" lon="6.56263">
        <ele>2035</ele>
        <time>2023-06-03T18:24:05Z</time>
      </trkpt>
      <trkpt lat="45.65359" lon="6.56295">
        <ele>2022</ele>
        <time>2023-06-03T18:24:30Z</time>
      </trkpt>
      <trkpt lat="45.6539" lon="6.56308">
        <ele>2015</ele>
        <time>2023-06-03T18:24:46Z</time>
      </trkpt>
      <trkpt lat="45.65425" lon="6.56315">
        <ele>2008</ele>
        <time>2023-06-03T18:25:04Z</time>
      </trkpt>
      <trkpt lat="45.65479" lon="6.5633">
        <ele>1995</ele>
        <time>2023-06-03T18:25:31Z</time>
      </trkpt>
      <trkpt lat="45.65502" lon="6.56335">
        <ele>1990</ele>
        <time>2023-06-03T18:25:43Z</time>
      </trkpt>
      <trkpt lat="45.65532" lon="6.56315">
        <ele>1987</ele>
        <time>2023-06-03T18:26:00Z</time>
      </trkpt>
      <trkpt lat="45.65549" lon="6.56311">
        <ele>1986</ele>
        <time>2023-06-03T18:26:08Z</time>
      </trkpt>
      <trkpt lat="45.65568" lon="6.56312">
        <ele>1984</ele>
        <time>2023-06-03T18:26:18Z</time>
      </trkpt>
      <trkpt lat="45.65593" lon="6.56321">
        <ele>1982</ele>
        <time>2023-06-03T18:26:31Z</time>
      </trkpt>
      <trkpt lat="45.65618" lon="6.56326">
        <ele>1980</ele>
        <time>2023-06-03T18:26:43Z</time>
      </trkpt>
      <trkpt lat="45.65635" lon="6.56331">
        <ele>1979</ele>
        <time>2023-06-03T18:26:52Z</time>
      </trkpt>
      <trkpt lat="45.65653" lon="6.56341">
        <ele>1978</ele>
        <time>2023-06-03T18:27:02Z</time>
      </trkpt>
      <trkpt lat="45.65666" lon="6.56349">
        <ele>1976</ele>
        <time>2023-06-03T18:27:09Z</time>
      </trkpt>
      <trkpt lat="45.6569" lon="6.56346">
        <ele>1977</ele>
        <time>2023-06-03T18:27:21Z</time>
      </trkpt>
      <trkpt lat="45.65707" lon="6.56356">
        <ele>1977</ele>
        <time>2023-06-03T18:27:30Z</time>
      </trkpt>
      <trkpt lat="45.65727" lon="6.56355">
        <ele>1978</ele>
        <time>2023-06-03T18:27:40Z</time>
      </trkpt>
      <trkpt lat="45.65741" lon="6.56357">
        <ele>1978</ele>
        <time>2023-06-03T18:27:47Z</time>
      </trkpt>
      <trkpt lat="45.65756" lon="6.56371">
        <ele>1978</ele>
        <time>2023-06-03T18:27:56Z</time>
      </trkpt>
      <trkpt lat="45.65772" lon="6.5638">
        <ele>1978</ele>
        <time>2023-06-03T18:28:04Z</time>
      </trkpt>
      <trkpt lat="45.65786" lon="6.56395">
        <ele>1977</ele>
        <time>2023-06-03T18:28:13Z</time>
      </trkpt>
      <trkpt lat="45.65808" lon="6.56413">
        <ele>1978</ele>
        <time>2023-06-03T18:28:26Z</time>
      </trkpt>
      <trkpt lat="45.65817" lon="6.56427">
        <ele>1976</ele>
        <time>2023-06-03T18:28:33Z</time>
      </trkpt>
      <trkpt lat="45.6583" lon="6.56465">
        <ele>1969</ele>
        <time>2023-06-03T18:28:47Z</time>
      </trkpt>
      <trkpt lat="45.65843" lon="6.56472">
        <ele>1966</ele>
        <time>2023-06-03T18:28:54Z</time>
      </trkpt>
      <trkpt lat="45.65865" lon="6.56485">
        <ele>1960</ele>
        <time>2023-06-03T18:29:06Z</time>
      </trkpt>
      <trkpt lat="45.65885" lon="6.56498">
        <ele>1953</ele>
        <time>2023-06-03T18:29:17Z</time>
      </trkpt>
      <trkpt lat="45.65905" lon="6.565">
        <ele>1949</ele>
        <time>2023-06-03T18:29:27Z</time>
      </trkpt>
      <trkpt lat="45.65925" lon="6.56521">
        <ele>1942</ele>
        <time>2023-06-03T18:29:40Z</time>
      </trkpt>
      <trkpt lat="45.65941" lon="6.56526">
        <ele>1937</ele>
        <time>2023-06-03T18:29:48Z</time>
      </trkpt>
      <trkpt lat="45.65953" lon="6.56537">
        <ele>1933</ele>
        <time>2023-06-03T18:29:55Z</time>
      </trkpt>
      <trkpt lat="45.65967" lon="6.56547">
        <ele>1929</ele>
        <time>2023-06-03T18:30:03Z</time>
      </trkpt>
      <trkpt lat="45.65982" lon="6.56552">
        <ele>1925</ele>
        <time>2023-06-03T18:30:11Z</time>
      </trkpt>
      <trkpt lat="45.65988" lon="6.56566">
        <ele>1924</ele>
        <time>2023-06-03T18:30:16Z</time>
      </trkpt>
      <trkpt lat="45.66016" lon="6.56583">
        <ele>1917</ele>
        <time>2023-06-03T18:30:32Z</time>
      </trkpt>
      <trkpt lat="45.66036" lon="6.56571">
        <ele>1911</ele>
        <time>2023-06-03T18:30:42Z</time>
      </trkpt>
      <trkpt lat="45.66045" lon="6.56551">
        <ele>1909</ele>
        <time>2023-06-03T18:30:51Z</time>
      </trkpt>
      <trkpt lat="45.66069" lon="6.56543">
        <ele>1902</ele>
        <time>2023-06-03T18:31:03Z</time>
      </trkpt>
      <trkpt lat="45.66075" lon="6.56533">
        <ele>1901</ele>
        <time>2023-06-03T18:31:08Z</time>
      </trkpt>
      <trkpt lat="45.66089" lon="6.56529">
        <ele>1897</ele>
        <time>2023-06-03T18:31:15Z</time>
      </trkpt>
      <trkpt lat="45.66105" lon="6.56529">
        <ele>1893</ele>
        <time>2023-06-03T18:31:23Z</time>
      </trkpt>
      <trkpt lat="45.66121" lon="6.56515">
        <ele>1889</ele>
        <time>2023-06-03T18:31:32Z</time>
      </trkpt>
      <trkpt lat="45.66147" lon="6.56502">
        <ele>1881</ele>
        <time>2023-06-03T18:31:46Z</time>
      </trkpt>
      <trkpt lat="45.66156" lon="6.56515">
        <ele>1880</ele>
        <time>2023-06-03T18:31:52Z</time>
      </trkpt>
      <trkpt lat="45.66171" lon="6.56519">
        <ele>1877</ele>
        <time>2023-06-03T18:32:00Z</time>
      </trkpt>
      <trkpt lat="45.66183" lon="6.56501">
        <ele>1875</ele>
        <time>2023-06-03T18:32:09Z</time>
      </trkpt>
      <trkpt lat="45.66194" lon="6.5647">
        <ele>1869</ele>
        <time>2023-06-03T18:32:21Z</time>
      </trkpt>
      <trkpt lat="45.66214" lon="6.56442">
        <ele>1861</ele>
        <time>2023-06-03T18:32:35Z</time>
      </trkpt>
      <trkpt lat="45.66242" lon="6.56427">
        <ele>1851</ele>
        <time>2023-06-03T18:32:50Z</time>
      </trkpt>
      <trkpt lat="45.66244" lon="6.56405">
        <ele>1846</ele>
        <time>2023-06-03T18:32:58Z</time>
      </trkpt>
      <trkpt lat="45.66237" lon="6.5637">
        <ele>1846</ele>
        <time>2023-06-03T18:33:10Z</time>
      </trkpt>
      <trkpt lat="45.66235" lon="6.56348">
        <ele>1845</ele>
        <time>2023-06-03T18:33:18Z</time>
      </trkpt>
      <trkpt lat="45.66245" lon="6.5633">
        <ele>1839</ele>
        <time>2023-06-03T18:33:26Z</time>
      </trkpt>
      <trkpt lat="45.66264" lon="6.56325">
        <ele>1831</ele>
        <time>2023-06-03T18:33:36Z</time>
      </trkpt>
      <trkpt lat="45.66287" lon="6.56331">
        <ele>1822</ele>
        <time>2023-06-03T18:33:47Z</time>
      </trkpt>
      <trkpt lat="45.66313" lon="6.56351">
        <ele>1815</ele>
        <time>2023-06-03T18:34:02Z</time>
      </trkpt>
      <trkpt lat="45.6633" lon="6.56378">
        <ele>1814</ele>
        <time>2023-06-03T18:34:15Z</time>
      </trkpt>
      <trkpt lat="45.66371" lon="6.56417">
        <ele>1807</ele>
        <time>2023-06-03T18:34:40Z</time>
      </trkpt>
      <trkpt lat="45.66412" lon="6.56441">
        <ele>1797</ele>
        <time>2023-06-03T18:35:02Z</time>
      </trkpt>
      <trkpt lat="45.66449" lon="6.56457">
        <ele>1783</ele>
        <time>2023-06-03T18:35:21Z</time>
      </trkpt>
      <trkpt lat="45.66496" lon="6.56476">
        <ele>1763</ele>
        <time>2023-06-03T18:35:46Z</time>
      </trkpt>
      <trkpt lat="45.66549" lon="6.56479">
        <ele>1746</ele>
        <time>2023-06-03T18:36:12Z</time>
      </trkpt>
      <trkpt lat="45.66691" lon="6.56515">
        <ele>1720</ele>
        <time>2023-06-03T18:37:24Z</time>
      </trkpt>
      <trkpt lat="45.66707" lon="6.56437">
        <ele>1714</ele>
        <time>2023-06-03T18:37:53Z</time>
      </trkpt>
      <trkpt lat="45.66703" lon="6.56414">
        <ele>1712</ele>
        <time>2023-06-03T18:38:01Z</time>
      </trkpt>
      <trkpt lat="45.66662" lon="6.56377">
        <ele>1716</ele>
        <time>2023-06-03T18:38:25Z</time>
      </trkpt>
      <trkpt lat="45.66707" lon="6.56349">
        <ele>1710</ele>
        <time>2023-06-03T18:38:50Z</time>
      </trkpt>
      <trkpt lat="45.66676" lon="6.56208">
        <ele>1705</ele>
        <time>2023-06-03T18:39:41Z</time>
      </trkpt>
      <trkpt lat="45.66652" lon="6.56118">
        <ele>1684</ele>
        <time>2023-06-03T18:40:15Z</time>
      </trkpt>
      <trkpt lat="45.6665" lon="6.56043">
        <ele>1663</ele>
        <time>2023-06-03T18:40:41Z</time>
      </trkpt>
      <trkpt lat="45.66701" lon="6.56006">
        <ele>1667</ele>
        <time>2023-06-03T18:41:10Z</time>
      </trkpt>
      <trkpt lat="45.66802" lon="6.55847">
        <ele>1661</ele>
        <time>2023-06-03T18:42:25Z</time>
      </trkpt>
      <trkpt lat="45.66797" lon="6.56034">
        <ele>1664</ele>
        <time>2023-06-03T18:43:31Z</time>
      </trkpt>
      <trkpt lat="45.66883" lon="6.5589">
        <ele>1650</ele>
        <time>2023-06-03T18:44:37Z</time>
      </trkpt>
      <trkpt lat="45.66889" lon="6.56006">
        <ele>1642</ele>
        <time>2023-06-03T18:45:18Z</time>
      </trkpt>
      <trkpt lat="45.66944" lon="6.55912">
        <ele>1632</ele>
        <time>2023-06-03T18:46:00Z</time>
      </trkpt>
      <trkpt lat="45.66937" lon="6.56038">
        <ele>1628</ele>
        <time>2023-06-03T18:46:45Z</time>
      </trkpt>
      <trkpt lat="45.66998" lon="6.56092">
        <ele>1610</ele>
        <time>2023-06-03T18:47:20Z</time>
      </trkpt>
      <trkpt lat="45.67051" lon="6.56051">
        <ele>1586</ele>
        <time>2023-06-03T18:47:51Z</time>
      </trkpt>
      <trkpt lat="45.6712" lon="6.56118">
        <ele>1547</ele>
        <time>2023-06-03T18:48:32Z</time>
      </trkpt>
      <trkpt lat="45.67162" lon="6.56017">
        <ele>1525</ele>
        <time>2023-06-03T18:49:13Z</time>
      </trkpt>
      <trkpt lat="45.67217" lon="6.56064">
        <ele>1483</ele>
        <time>2023-06-03T18:49:46Z</time>
      </trkpt>
      <trkpt lat="45.67288" lon="6.55965">
        <ele>1445</ele>
        <time>2023-06-03T18:50:35Z</time>
      </trkpt>
      <trkpt lat="45.67327" lon="6.56006">
        <ele>1427</ele>
        <time>2023-06-03T18:50:59Z</time>
      </trkpt>
      <trkpt lat="45.67343" lon="6.56101">
        <ele>1413</ele>
        <time>2023-06-03T18:51:34Z</time>
      </trkpt>
      <trkpt lat="45.67424" lon="6.5612">
        <ele>1379</ele>
        <time>2023-06-03T18:52:15Z</time>
      </trkpt>
      <trkpt lat="45.67493" lon="6.56141">
        <ele>1360</ele>
        <time>2023-06-03T18:52:50Z</time>
      </trkpt>
      <trkpt lat="45.67574" lon="6.56171">
        <ele>1345</ele>
        <time>2023-06-03T18:53:32Z</time>
      </trkpt>
      <trkpt lat="45.67597" lon="6.56227">
        <ele>1351</ele>
        <time>2023-06-03T18:53:54Z</time>
      </trkpt>
      <trkpt lat="45.67594" lon="6.56274">
        <ele>1365</ele>
        <time>2023-06-03T18:54:11Z</time>
      </trkpt>
      <trkpt lat="45.67606" lon="6.56307">
        <ele>1365</ele>
        <time>2023-06-03T18:54:24Z</time>
      </trkpt>
      <trkpt lat="45.676" lon="6.56352">
        <ele>1379</ele>
        <time>2023-06-03T18:54:40Z</time>
      </trkpt>
      <trkpt lat="45.67664" lon="6.5636">
        <ele>1352</ele>
        <time>2023-06-03T18:55:12Z</time>
      </trkpt>
      <trkpt lat="45.67717" lon="6.56345">
        <ele>1322</ele>
        <time>2023-06-03T18:55:39Z</time>
      </trkpt>
      <trkpt lat="45.67723" lon="6.56414">
        <ele>1343</ele>
        <time>2023-06-03T18:56:03Z</time>
      </trkpt>
      <trkpt lat="45.67794" lon="6.56467">
        <ele>1316</ele>
        <time>2023-06-03T18:56:44Z</time>
      </trkpt>
      <trkpt lat="45.67815" lon="6.56532">
        <ele>1319</ele>
        <time>2023-06-03T18:57:09Z</time>
      </trkpt>
      <trkpt lat="45.67886" lon="6.56639">
        <ele>1300</ele>
        <time>2023-06-03T18:58:00Z</time>
      </trkpt>
      <trkpt lat="45.67907" lon="6.56648">
        <ele>1290</ele>
        <time>2023-06-03T18:58:11Z</time>
      </trkpt>
      <trkpt lat="45.67899" lon="6.56581">
        <ele>1287</ele>
        <time>2023-06-03T18:58:35Z</time>
      </trkpt>
      <trkpt lat="45.67949" lon="6.56605">
        <ele>1267</ele>
        <time>2023-06-03T18:59:01Z</time>
      </trkpt>
      <trkpt lat="45.68" lon="6.56639">
        <ele>1250</ele>
        <time>2023-06-03T18:59:29Z</time>
      </trkpt>
      <trkpt lat="45.68016" lon="6.56663">
        <ele>1245</ele>
        <time>2023-06-03T18:59:41Z</time>
      </trkpt>
      <trkpt lat="45.68037" lon="6.56592">
        <ele>1227</ele>
        <time>2023-06-03T19:00:08Z</time>
      </trkpt>
      <trkpt lat="45.68072" lon="6.5662">
        <ele>1213</ele>
        <time>2023-06-03T19:00:28Z</time>
      </trkpt>
      <trkpt lat="45.68124" lon="6.56562">
        <ele>1178</ele>
        <time>2023-06-03T19:01:01Z</time>
      </trkpt>
      <trkpt lat="45.6816" lon="6.5656">
        <ele>1161</ele>
        <time>2023-06-03T19:01:19Z</time>
      </trkpt>
      <trkpt lat="45.68207" lon="6.56579">
        <ele>1146</ele>
        <time>2023-06-03T19:01:44Z</time>
      </trkpt>
      <trkpt lat="45.68241" lon="6.56611">
        <ele>1137</ele>
        <time>2023-06-03T19:02:04Z</time>
      </trkpt>
      <trkpt lat="45.68264" lon="6.56641">
        <ele>1131</ele>
        <time>2023-06-03T19:02:19Z</time>
      </trkpt>
      <trkpt lat="45.68286" lon="6.56675">
        <ele>1126</ele>
        <time>2023-06-03T19:02:36Z</time>
      </trkpt>
      <trkpt lat="45.68297" lon="6.56702">
        <ele>1123</ele>
        <time>2023-06-03T19:02:47Z</time>
      </trkpt>
      <trkpt lat="45.68305" lon="6.56741">
        <ele>1121</ele>
        <time>2023-06-03T19:03:01Z</time>
      </trkpt>
      <trkpt lat="45.68315" lon="6.568">
        <ele>1113</ele>
        <time>2023-06-03T19:03:22Z</time>
      </trkpt>
      <trkpt lat="45.6833" lon="6.56815">
        <ele>1104</ele>
        <time>2023-06-03T19:03:31Z</time>
      </trkpt>
      <trkpt lat="45.68341" lon="6.56798">
        <ele>1100</ele>
        <time>2023-06-03T19:03:39Z</time>
      </trkpt>
      <trkpt lat="45.6833" lon="6.56846">
        <ele>1102</ele>
        <time>2023-06-03T19:03:57Z</time>
      </trkpt>
      <trkpt lat="45.68367" lon="6.56842">
        <ele>1081</ele>
        <time>2023-06-03T19:04:16Z</time>
      </trkpt>
      <trkpt lat="45.68383" lon="6.56814">
        <ele>1074</ele>
        <time>2023-06-03T19:04:28Z</time>
      </trkpt>
      <trkpt lat="45.6841" lon="6.56776">
        <ele>1064</ele>
        <time>2023-06-03T19:04:47Z</time>
      </trkpt>
      <trkpt lat="45.68449" lon="6.56759">
        <ele>1049</ele>
        <time>2023-06-03T19:05:08Z</time>
      </trkpt>
      <trkpt lat="45.68492" lon="6.56735">
        <ele>1033</ele>
        <time>2023-06-03T19:05:31Z</time>
      </trkpt>
      <trkpt lat="45.68527" lon="6.56688">
        <ele>1029</ele>
        <time>2023-06-03T19:05:55Z</time>
      </trkpt>
      <trkpt lat="45.68537" lon="6.56638">
        <ele>1026</ele>
        <time>2023-06-03T19:06:13Z</time>
      </trkpt>
      <trkpt lat="45.68542" lon="6.56615">
        <ele>1024</ele>
        <time>2023-06-03T19:06:21Z</time>
      </trkpt>
      <trkpt lat="45.6854" lon="6.56575">
        <ele>1023</ele>
        <time>2023-06-03T19:06:35Z</time>
      </trkpt>
      <trkpt lat="45.68536" lon="6.56555">
        <ele>1023</ele>
        <time>2023-06-03T19:06:43Z</time>
      </trkpt>
      <trkpt lat="45.68538" lon="6.56511">
        <ele>1019</ele>
        <time>2023-06-03T19:06:58Z</time>
      </trkpt>
      <trkpt lat="45.6852" lon="6.56477">
        <ele>1018</ele>
        <time>2023-06-03T19:07:13Z</time>
      </trkpt>
      <trkpt lat="45.68518" lon="6.56437">
        <ele>1015</ele>
        <time>2023-06-03T19:07:27Z</time>
      </trkpt>
      <trkpt lat="45.68515" lon="6.56393">
        <ele>1015</ele>
        <time>2023-06-03T19:07:42Z</time>
      </trkpt>
    </trkseg>
  </trk>
</gpx>